Time;durP1;ratioP1;P1;durP2;ratioP2;P2;SDS_P1;SDS_P2;PMS_P1;PMS_P2;Temp;Humidity;BMP_temperature;BMP_pressure;BME280_temperature;BME280_humidity;BME280_pressure;Samples;Min_cycle;Max_cycle;Signal;HPM_P1;HPM_P2
2024/01/28 00:02:15;;;;;;;19.13;5.47;;;;;;;;;;4915903;29;20059;-76
2024/01/28 00:04:44;;;;;;;14.73;5.28;;;;;;;;;;4915339;29;20047;-78
2024/01/28 00:07:28;;;;;;;15.60;5.80;;;;;;;;;;4937781;29;20162;-76
2024/01/28 00:09:55;;;;;;;17.20;5.10;;;;;;;;;;4935091;29;20028;-78
2024/01/28 00:20:35;;;;;;;;;;;;;;;;;;4973119;28;20063;-78
2024/01/28 00:23:59;;;;;;;16.40;5.38;;;;;;;;;;5143468;23;19951;-79
2024/01/28 00:26:41;;;;;;;16.90;5.18;;;;;;;;;;4953456;29;20131;-78
2024/01/28 00:29:07;;;;;;;23.20;5.15;;;;;;;;;;4958376;23;20051;-79
2024/01/28 00:31:33;;;;;;;15.95;4.80;;;;;;;;;;4950421;28;20027;-79
2024/01/28 00:34:17;;;;;;;16.63;5.53;;;;;;;;;;4971097;28;20043;-79
2024/01/28 00:36:45;;;;;;;12.50;4.85;;;;;;;;;;4931998;29;20032;-80
2024/01/28 00:40:09;;;;;;;14.77;4.78;;;;;;;;;;4964397;28;20035;-80
2024/01/28 00:43:03;;;;;;;18.10;5.50;;;;;;;;;;4950610;29;20047;-79
2024/01/28 00:46:24;;;;;;;19.35;4.45;;;;;;;;;;4963648;29;20450;-78
2024/01/28 00:48:59;;;;;;;24.55;5.53;;;;;;;;;;4943046;29;20591;-77
2024/01/28 00:51:31;;;;;;;13.15;4.75;;;;;;;;;;4899035;29;20067;-79
2024/01/28 00:54:30;;;;;;;14.32;4.95;;;;;;;;;;4928387;29;20028;-79
2024/01/28 00:56:59;;;;;;;16.90;5.30;;;;;;;;;;4910536;29;20047;-79
2024/01/28 00:59:38;;;;;;;13.45;5.18;;;;;;;;;;4913710;29;20028;-77
2024/01/28 01:02:30;;;;;;;20.48;5.88;;;;;;;;;;4947627;29;20023;-79
2024/01/28 01:05:53;;;;;;;12.35;4.40;;;;;;;;;;4922320;29;20043;-79
2024/01/28 01:12:28;;;;;;;13.48;4.55;;;;;;;;;;4942317;29;20046;-80
2024/01/28 01:16:08;;;;;;;18.00;5.32;;;;;;;;;;4924904;29;20126;-79
2024/01/28 01:19:37;;;;;;;21.30;5.45;;;;;;;;;;4935033;28;20054;-79
2024/01/28 01:22:19;;;;;;;12.80;5.43;;;;;;;;;;4956129;28;20540;-78
2024/01/28 01:25:18;;;;;;;13.13;4.30;;;;;;;;;;4947043;28;20082;-78
2024/01/28 01:31:41;;;;;;;11.98;3.95;;;;;;;;;;4960685;28;20115;-78
2024/01/28 01:34:27;;;;;;;17.42;4.50;;;;;;;;;;4942786;29;20407;-80
2024/01/28 01:38:02;;;;;;;10.75;4.25;;;;;;;;;;4936085;29;20491;-77
2024/01/28 01:41:56;;;;;;;15.35;4.30;;;;;;;;;;4962170;29;20120;-79
2024/01/28 01:44:50;;;;;;;12.25;4.15;;;;;;;;;;4947533;29;20090;-78
2024/01/28 01:48:07;;;;;;;11.98;4.22;;;;;;;;;;4973974;28;20103;-79
2024/01/28 01:51:29;;;;;;;16.70;4.53;;;;;;;;;;4970728;28;20070;-79
2024/01/28 01:54:49;;;;;;;11.82;4.80;;;;;;;;;;4950653;28;20039;-79
2024/01/28 01:57:21;;;;;;;15.20;4.30;;;;;;;;;;4949080;28;20031;-79
2024/01/28 02:00:19;;;;;;;17.92;3.88;;;;;;;;;;4965105;28;20062;-79
2024/01/28 02:03:20;;;;;;;15.65;4.57;;;;;;;;;;4952871;28;20034;-79
2024/01/28 02:06:19;;;;;;;17.20;4.68;;;;;;;;;;4965904;28;20053;-77
2024/01/28 02:09:18;;;;;;;12.60;4.10;;;;;;;;;;4952094;28;20108;-78
2024/01/28 02:12:26;;;;;;;15.30;4.80;;;;;;;;;;4980690;28;20389;-77
2024/01/28 02:15:12;;;;;;;16.73;4.80;;;;;;;;;;4963165;28;20034;-78
2024/01/28 02:18:06;;;;;;;11.52;4.30;;;;;;;;;;4963879;28;20054;-77
2024/01/28 02:20:40;;;;;;;11.57;3.95;;;;;;;;;;4963578;28;20035;-79
2024/01/28 02:24:06;;;;;;;18.25;4.65;;;;;;;;;;5005375;23;20078;-80
2024/01/28 02:26:35;;;;;;;17.95;4.55;;;;;;;;;;4963218;28;20042;-79
2024/01/28 02:29:03;;;;;;;11.55;4.10;;;;;;;;;;4963047;28;20117;-79
2024/01/28 02:31:30;;;;;;;;;;;;;;;;;;4963073;28;20489;-79
2024/01/28 02:34:00;;;;;;;13.75;3.72;;;;;;;;;;4976647;28;19921;-78
2024/01/28 02:36:31;;;;;;;16.52;4.18;;;;;;;;;;4962744;28;20046;-77
2024/01/28 02:38:58;;;;;;;13.70;4.20;;;;;;;;;;4963586;28;20078;-78
2024/01/28 02:41:25;;;;;;;17.23;4.32;;;;;;;;;;4963678;28;20042;-79
2024/01/28 02:43:54;;;;;;;11.52;3.88;;;;;;;;;;4980734;28;20038;-79
2024/01/28 02:46:20;;;;;;;16.63;4.88;;;;;;;;;;4961280;28;20034;-79
2024/01/28 02:48:48;;;;;;;13.73;3.47;;;;;;;;;;4979775;28;20041;-79
2024/01/28 02:51:17;;;;;;;15.23;4.28;;;;;;;;;;4973891;28;20031;-81
2024/01/28 02:53:42;;;;;;;16.70;4.85;;;;;;;;;;4961575;28;20019;-80
2024/01/28 02:56:08;;;;;;;12.80;4.25;;;;;;;;;;4970391;28;20023;-79
2024/01/28 02:58:35;;;;;;;14.50;4.38;;;;;;;;;;4978042;28;20042;-80
2024/01/28 03:01:06;;;;;;;16.27;4.53;;;;;;;;;;4983412;28;20035;-80
2024/01/28 03:03:32;;;;;;;17.27;4.88;;;;;;;;;;4983549;28;20094;-80
2024/01/28 03:06:03;;;;;;;14.77;4.13;;;;;;;;;;4967897;28;20122;-79
2024/01/28 03:08:30;;;;;;;17.80;6.03;;;;;;;;;;4948580;28;20061;-80
2024/01/28 03:10:59;;;;;;;15.35;4.10;;;;;;;;;;4963164;28;20043;-81
2024/01/28 03:13:43;;;;;;;14.50;4.37;;;;;;;;;;4930112;28;20495;-81
2024/01/28 03:16:46;;;;;;;17.00;3.80;;;;;;;;;;4977993;28;20323;-80
2024/01/28 03:19:37;;;;;;;;;;;;;;;;;;;;;
2024/01/28 03:22:06;;;;;;;13.57;4.20;;;;;;;;;;4914574;29;20039;-80
2024/01/28 03:24:45;;;;;;;12.60;4.15;;;;;;;;;;4917307;29;20103;-81
2024/01/28 03:30:12;;;;;;;13.45;4.78;;;;;;;;;;4938779;28;20024;-80
2024/01/28 03:32:39;;;;;;;17.05;4.32;;;;;;;;;;4923239;29;20036;-80
2024/01/28 03:35:28;;;;;;;;;;;;;;;;;;4925335;28;20021;-79
2024/01/28 03:37:57;;;;;;;10.45;3.83;;;;;;;;;;4940547;28;19927;-81
2024/01/28 03:40:26;;;;;;;15.98;4.63;;;;;;;;;;4940511;29;20056;-79
2024/01/28 03:43:00;;;;;;;11.25;4.13;;;;;;;;;;4930534;29;20035;-79
2024/01/28 03:45:29;;;;;;;13.60;4.80;;;;;;;;;;4917786;29;20039;-80
2024/01/28 03:48:06;;;;;;;11.00;4.18;;;;;;;;;;4925443;29;20071;-80
2024/01/28 03:50:43;;;;;;;18.70;5.25;;;;;;;;;;4894144;29;20138;-79
2024/01/28 03:53:24;;;;;;;18.42;4.43;;;;;;;;;;4907745;29;20047;-79
2024/01/28 03:56:13;;;;;;;21.30;4.95;;;;;;;;;;4921584;29;20047;-80
2024/01/28 03:58:47;;;;;;;11.88;4.38;;;;;;;;;;4919621;29;20147;-80
2024/01/28 04:01:16;;;;;;;16.58;5.13;;;;;;;;;;4904614;29;20040;-81
2024/01/28 04:03:44;;;;;;;14.02;4.80;;;;;;;;;;4888746;29;20040;-80
2024/01/28 04:06:20;;;;;;;19.27;5.25;;;;;;;;;;4890551;29;20093;-81
2024/01/28 04:09:00;;;;;;;15.38;4.55;;;;;;;;;;4894180;29;20050;-80
2024/01/28 04:11:29;;;;;;;13.38;4.10;;;;;;;;;;4890344;29;20032;-79
2024/01/28 04:13:57;;;;;;;17.33;4.72;;;;;;;;;;4859322;29;20036;-82
2024/01/28 04:16:26;;;;;;;17.98;4.78;;;;;;;;;;4909949;29;20139;-81
2024/01/28 04:18:56;;;;;;;12.27;4.47;;;;;;;;;;4903264;29;20043;-81
2024/01/28 04:21:28;;;;;;;15.75;4.93;;;;;;;;;;4946754;29;20027;-82
2024/01/28 04:23:57;;;;;;;12.80;3.70;;;;;;;;;;4947079;29;20119;-81
2024/01/28 04:26:23;;;;;;;10.80;3.90;;;;;;;;;;4901667;29;20046;-79
2024/01/28 04:36:00;;;;;;;12.38;5.05;;;;;;;;;;5173472;23;20105;-80
2024/01/28 04:38:36;;;;;;;16.08;4.93;;;;;;;;;;4949020;28;20038;-79
2024/01/28 04:41:05;;;;;;;16.27;5.35;;;;;;;;;;4951578;28;20062;-81
2024/01/28 04:43:39;;;;;;;20.25;4.30;;;;;;;;;;4917526;29;20047;-80
2024/01/28 04:46:57;;;;;;;13.93;4.38;;;;;;;;;;4953486;29;20050;-79
2024/01/28 04:54:53;;;;;;;11.02;3.65;;;;;;;;;;4897167;29;20107;-79
2024/01/28 05:02:47;;;;;;;13.70;3.65;;;;;;;;;;4885649;29;20116;-79
2024/01/28 05:10:09;;;;;;;14.30;4.05;;;;;;;;;;4883708;29;20478;-80
2024/01/28 05:16:30;;;;;;;22.33;4.63;;;;;;;;;;5139266;23;20441;-80
2024/01/28 05:18:58;;;;;;;10.38;3.67;;;;;;;;;;4947579;28;20042;-81
2024/01/28 05:21:28;;;;;;;22.17;3.95;;;;;;;;;;4932407;28;20062;-81
2024/01/28 05:24:00;;;;;;;21.83;4.65;;;;;;;;;;4929127;29;20479;-79
2024/01/28 05:26:37;;;;;;;14.45;4.15;;;;;;;;;;4929797;29;20031;-80
2024/01/28 05:29:10;;;;;;;17.25;4.30;;;;;;;;;;4929281;29;20475;-79
2024/01/28 05:31:36;;;;;;;12.02;4.00;;;;;;;;;;4929321;29;20045;-78
2024/01/28 05:34:12;;;;;;;20.83;4.78;;;;;;;;;;4929504;29;20054;-80
2024/01/28 05:36:57;;;;;;;11.98;4.00;;;;;;;;;;4913757;29;20047;-79
2024/01/28 05:39:27;;;;;;;15.57;4.15;;;;;;;;;;4927889;29;20050;-80
2024/01/28 05:41:53;;;;;;;10.57;3.50;;;;;;;;;;4966045;29;20093;-80
2024/01/28 05:44:22;;;;;;;11.15;3.28;;;;;;;;;;4933537;29;20071;-80
2024/01/28 05:46:52;;;;;;;13.75;3.85;;;;;;;;;;4907596;29;20039;-78
2024/01/28 05:49:44;;;;;;;14.05;3.83;;;;;;;;;;4944044;29;20031;-80
2024/01/28 05:52:16;;;;;;;11.55;3.60;;;;;;;;;;4930184;28;20043;-81
2024/01/28 05:54:45;;;;;;;15.75;5.38;;;;;;;;;;4946330;28;20043;-80
2024/01/28 05:57:12;;;;;;;13.82;4.20;;;;;;;;;;4962467;28;20016;-81
2024/01/28 05:59:40;;;;;;;14.43;4.07;;;;;;;;;;4900517;28;20040;-80
2024/01/28 06:02:06;;;;;;;14.35;4.18;;;;;;;;;;4947889;28;20022;-79
2024/01/28 06:04:35;;;;;;;13.55;3.60;;;;;;;;;;4949834;28;20043;-81
2024/01/28 06:07:01;;;;;;;19.73;3.50;;;;;;;;;;4949726;28;20019;-80
2024/01/28 06:09:27;;;;;;;13.57;3.97;;;;;;;;;;4965253;28;20018;-81
2024/01/28 06:12:00;;;;;;;13.10;3.22;;;;;;;;;;4960316;28;20091;-80
2024/01/28 06:14:34;;;;;;;11.13;3.42;;;;;;;;;;4930283;29;20563;-80
2024/01/28 06:17:05;;;;;;;9.18;4.07;;;;;;;;;;4929070;29;20043;-79
2024/01/28 06:19:32;;;;;;;14.27;3.72;;;;;;;;;;4928655;29;20039;-79
2024/01/28 06:22:07;;;;;;;18.98;5.03;;;;;;;;;;4929013;29;20039;-81
2024/01/28 06:24:35;;;;;;;12.90;3.67;;;;;;;;;;4929470;29;20035;-80
2024/01/28 06:27:01;;;;;;;14.40;4.07;;;;;;;;;;4927691;29;20042;-80
2024/01/28 06:29:29;;;;;;;10.55;2.92;;;;;;;;;;4961477;28;20027;-81
2024/01/28 06:32:01;;;;;;;14.50;3.75;;;;;;;;;;4927745;29;20034;-80
2024/01/28 06:34:30;;;;;;;9.75;3.45;;;;;;;;;;4927271;29;20042;-80
2024/01/28 06:36:56;;;;;;;9.13;3.20;;;;;;;;;;4927957;29;20042;-81
2024/01/28 06:39:26;;;;;;;11.80;3.30;;;;;;;;;;4927618;29;20462;-81
2024/01/28 06:41:54;;;;;;;10.63;3.30;;;;;;;;;;4942498;29;20114;-80
2024/01/28 06:44:22;;;;;;;8.07;3.03;;;;;;;;;;4929705;29;20039;-81
2024/01/28 06:47:08;;;;;;;;;;;;;;;;;;;;;
2024/01/28 06:49:42;;;;;;;18.27;3.30;;;;;;;;;;4943976;29;20027;-81
2024/01/28 06:52:08;;;;;;;11.00;3.10;;;;;;;;;;4914272;29;20035;-80
2024/01/28 06:54:35;;;;;;;11.57;3.05;;;;;;;;;;4946004;28;20039;-81
2024/01/28 06:57:04;;;;;;;12.77;3.35;;;;;;;;;;4961059;29;20035;-80
2024/01/28 06:59:30;;;;;;;11.70;3.15;;;;;;;;;;4944591;29;20085;-80
2024/01/28 07:01:56;;;;;;;13.30;3.30;;;;;;;;;;4944607;29;20125;-80
2024/01/28 07:04:22;;;;;;;9.10;3.47;;;;;;;;;;4926980;29;20038;-80
2024/01/28 07:06:48;;;;;;;18.75;3.72;;;;;;;;;;4929015;29;20043;-80
2024/01/28 07:09:17;;;;;;;10.27;3.30;;;;;;;;;;4944042;29;20031;-80
2024/01/28 07:11:54;;;;;;;7.57;3.33;;;;;;;;;;4929293;29;20095;-80
2024/01/28 07:14:20;;;;;;;9.40;2.92;;;;;;;;;;4928454;29;20110;-80
2024/01/28 07:16:46;;;;;;;11.40;3.17;;;;;;;;;;4927293;29;20101;-80
2024/01/28 07:19:14;;;;;;;10.40;3.15;;;;;;;;;;4913553;29;20036;-80
2024/01/28 07:21:40;;;;;;;16.42;3.55;;;;;;;;;;4912475;29;20035;-80
2024/01/28 07:24:10;;;;;;;9.93;3.25;;;;;;;;;;4898565;29;20051;-79
2024/01/28 07:26:36;;;;;;;12.70;3.22;;;;;;;;;;4905956;29;20039;-81
2024/01/28 07:29:03;;;;;;;10.43;3.47;;;;;;;;;;4894241;29;20042;-80
2024/01/28 07:31:42;;;;;;;14.20;3.45;;;;;;;;;;4912485;29;20122;-80
2024/01/28 07:34:08;;;;;;;12.02;4.05;;;;;;;;;;4906800;29;20039;-78
2024/01/28 07:36:34;;;;;;;10.50;2.90;;;;;;;;;;4891920;29;20036;-80
2024/01/28 07:39:00;;;;;;;14.13;3.17;;;;;;;;;;4907326;29;20466;-80
2024/01/28 07:41:26;;;;;;;12.98;2.90;;;;;;;;;;4922912;29;20442;-79
2024/01/28 07:51:48;;;;;;;14.38;3.17;;;;;;;;;;4936930;29;20063;-79
2024/01/28 07:55:19;;;;;;;12.15;3.22;;;;;;;;;;5004662;23;20070;-79
2024/01/28 07:57:45;;;;;;;15.32;3.35;;;;;;;;;;4926676;28;20046;-79
2024/01/28 08:00:11;;;;;;;18.27;2.80;;;;;;;;;;4958326;28;20058;-80
2024/01/28 08:02:40;;;;;;;13.07;2.95;;;;;;;;;;4943020;28;20026;-78
2024/01/28 08:05:06;;;;;;;13.90;3.40;;;;;;;;;;4924251;29;20038;-79
2024/01/28 08:07:32;;;;;;;10.27;2.92;;;;;;;;;;4908426;29;20191;-79
2024/01/28 08:09:59;;;;;;;12.50;3.58;;;;;;;;;;4920013;29;20561;-79
2024/01/28 08:12:27;;;;;;;12.25;2.60;;;;;;;;;;4920677;29;20035;-80
2024/01/28 08:14:55;;;;;;;7.22;2.80;;;;;;;;;;4925621;29;20048;-80
2024/01/28 08:17:28;;;;;;;9.30;3.83;;;;;;;;;;4948213;29;20046;-80
2024/01/28 08:20:03;;;;;;;13.95;3.55;;;;;;;;;;4946637;29;20031;-79
2024/01/28 08:22:35;;;;;;;16.02;3.42;;;;;;;;;;4946544;29;20031;-80
2024/01/28 08:25:02;;;;;;;11.68;3.38;;;;;;;;;;4963223;28;20035;-79
2024/01/28 08:27:37;;;;;;;10.73;3.30;;;;;;;;;;4950433;29;20035;-80
2024/01/28 08:30:04;;;;;;;11.40;2.65;;;;;;;;;;4936645;29;20031;-80
2024/01/28 08:32:56;;;;;;;8.35;2.63;;;;;;;;;;4948351;29;20039;-80
2024/01/28 08:35:25;;;;;;;12.95;3.13;;;;;;;;;;4946315;29;20050;-81
2024/01/28 08:37:57;;;;;;;10.95;3.47;;;;;;;;;;4945627;29;20050;-80
2024/01/28 08:40:24;;;;;;;11.25;2.92;;;;;;;;;;4914395;29;20039;-80
2024/01/28 08:42:53;;;;;;;18.90;5.93;;;;;;;;;;4933817;29;20027;-79
2024/01/28 08:45:21;;;;;;;15.68;4.82;;;;;;;;;;4962528;28;20031;-81
2024/01/28 08:47:52;;;;;;;9.35;2.80;;;;;;;;;;4943661;29;20036;-79
2024/01/28 08:50:23;;;;;;;13.98;3.30;;;;;;;;;;4963830;28;20019;-78
2024/01/28 08:52:52;;;;;;;9.85;2.95;;;;;;;;;;4948032;28;20091;-79
2024/01/28 08:55:18;;;;;;;15.52;3.35;;;;;;;;;;4961827;28;20091;-80
2024/01/28 08:57:51;;;;;;;9.43;2.72;;;;;;;;;;4947478;29;20038;-80
2024/01/28 09:00:24;;;;;;;10.27;3.15;;;;;;;;;;4930888;29;20112;-80
2024/01/28 09:02:50;;;;;;;9.40;2.70;;;;;;;;;;4966447;28;20032;-79
2024/01/28 09:05:16;;;;;;;11.05;2.28;;;;;;;;;;4938347;29;20042;-80
2024/01/28 09:07:47;;;;;;;8.73;2.88;;;;;;;;;;4906842;29;20046;-80
2024/01/28 09:10:12;;;;;;;13.13;4.63;;;;;;;;;;4918423;29;20481;-79
2024/01/28 09:12:40;;;;;;;17.05;4.90;;;;;;;;;;4956931;29;20565;-78
2024/01/28 09:15:15;;;;;;;7.90;2.90;;;;;;;;;;4957493;28;20047;-79
2024/01/28 09:17:41;;;;;;;13.65;4.15;;;;;;;;;;4941347;29;20031;-79
2024/01/28 09:20:07;;;;;;;6.93;2.53;;;;;;;;;;4925183;29;20122;-79
2024/01/28 09:22:36;;;;;;;13.02;3.47;;;;;;;;;;4924918;29;20047;-78
2024/01/28 09:25:04;;;;;;;10.20;2.88;;;;;;;;;;4925348;29;20522;-78
2024/01/28 09:27:30;;;;;;;11.68;3.13;;;;;;;;;;4940562;29;20545;-80
2024/01/28 09:29:58;;;;;;;9.45;2.50;;;;;;;;;;4942086;29;20027;-80
2024/01/28 09:32:29;;;;;;;;;;;;;;;;;;4926721;29;20035;-78
2024/01/28 09:34:55;;;;;;;13.40;2.50;;;;;;;;;;4925528;29;19917;-80
2024/01/28 09:37:21;;;;;;;8.75;2.65;;;;;;;;;;4925798;29;20039;-79
2024/01/28 09:39:47;;;;;;;8.13;2.28;;;;;;;;;;4925403;29;20055;-78
2024/01/28 09:42:25;;;;;;;8.50;2.30;;;;;;;;;;4925664;29;20090;-80
2024/01/28 09:44:51;;;;;;;9.93;2.60;;;;;;;;;;4920046;29;20475;-79
2024/01/28 09:47:20;;;;;;;9.57;2.35;;;;;;;;;;4925770;29;20041;-80
2024/01/28 09:49:46;;;;;;;;;;;;;;;;;;4921296;29;20028;-80
2024/01/28 09:52:13;;;;;;;7.15;2.13;;;;;;;;;;4925623;29;19977;-80
2024/01/28 09:54:41;;;;;;;10.15;3.00;;;;;;;;;;4908080;29;20031;-80
2024/01/28 09:57:13;;;;;;;8.25;3.17;;;;;;;;;;4940762;29;20031;-80
2024/01/28 09:59:43;;;;;;;10.57;2.30;;;;;;;;;;4925157;29;20395;-78
2024/01/28 10:02:09;;;;;;;7.47;2.38;;;;;;;;;;4940209;29;20023;-80
2024/01/28 10:04:37;;;;;;;6.50;2.40;;;;;;;;;;4925085;29;20432;-80
2024/01/28 10:07:07;;;;;;;;;;;;;;;;;;4941120;29;20031;-79
2024/01/28 10:09:44;;;;;;;6.63;1.75;;;;;;;;;;4926072;29;20370;-79
2024/01/28 10:21:02;;;;;;;5.07;1.80;;;;;;;;;;4898081;29;20059;-79
2024/01/28 10:24:02;;;;;;;9.85;2.05;;;;;;;;;;4956771;23;20036;-79
2024/01/28 10:26:28;;;;;;;6.45;1.85;;;;;;;;;;4959878;28;20478;-79
2024/01/28 10:28:56;;;;;;;5.35;1.33;;;;;;;;;;4934238;28;20042;-78
2024/01/28 10:31:26;;;;;;;8.80;2.30;;;;;;;;;;4947613;28;20080;-79
2024/01/28 10:33:57;;;;;;;9.20;2.30;;;;;;;;;;4972140;28;20122;-80
2024/01/28 10:36:23;;;;;;;8.25;2.15;;;;;;;;;;4961210;28;20463;-80
2024/01/28 10:38:52;;;;;;;7.28;2.60;;;;;;;;;;4948373;28;20406;-79
2024/01/28 10:41:24;;;;;;;8.40;1.88;;;;;;;;;;4932852;28;20062;-81
2024/01/28 10:43:57;;;;;;;9.27;2.50;;;;;;;;;;4943997;28;20524;-80
2024/01/28 10:46:29;;;;;;;10.77;1.77;;;;;;;;;;4912943;29;20042;-80
2024/01/28 10:48:56;;;;;;;9.50;2.45;;;;;;;;;;4938746;29;20035;-79
2024/01/28 10:51:23;;;;;;;8.20;2.03;;;;;;;;;;4907272;29;20043;-80
2024/01/28 10:53:51;;;;;;;5.35;1.73;;;;;;;;;;4923682;29;20095;-80
2024/01/28 10:56:20;;;;;;;6.38;1.80;;;;;;;;;;4937782;28;20800;-80
2024/01/28 10:58:46;;;;;;;7.65;1.85;;;;;;;;;;4954169;29;20031;-79
2024/01/28 11:01:14;;;;;;;;;;;;;;;;;;4974170;28;20103;-80
2024/01/28 11:03:43;;;;;;;9.95;2.45;;;;;;;;;;4940709;29;19916;-81
2024/01/28 11:06:18;;;;;;;9.63;2.20;;;;;;;;;;4938074;29;20555;-80
2024/01/28 11:08:52;;;;;;;10.90;2.80;;;;;;;;;;4970536;28;20030;-80
2024/01/28 11:11:20;;;;;;;4.93;2.40;;;;;;;;;;4971739;28;20545;-80
2024/01/28 11:13:46;;;;;;;12.03;2.53;;;;;;;;;;4956011;28;20042;-80
2024/01/28 11:16:12;;;;;;;6.18;2.35;;;;;;;;;;4956932;28;20280;-79
2024/01/28 11:18:40;;;;;;;4.53;1.95;;;;;;;;;;4956054;29;20046;-80
2024/01/28 11:24:10;;;;;;;8.25;1.88;;;;;;;;;;4954753;29;20027;-79
2024/01/28 11:26:38;;;;;;;8.07;2.57;;;;;;;;;;4955290;29;20066;-79
2024/01/28 11:29:10;;;;;;;;;;;;;;;;;;4939897;29;20261;-79
2024/01/28 11:31:39;;;;;;;6.97;1.63;;;;;;;;;;4954730;28;19910;-80
2024/01/28 11:34:22;;;;;;;7.63;2.47;;;;;;;;;;4956686;28;20406;-80
2024/01/28 11:36:51;;;;;;;6.15;2.08;;;;;;;;;;4939434;29;20035;-80
2024/01/28 11:39:22;;;;;;;7.35;1.75;;;;;;;;;;4925136;29;20031;-79
2024/01/28 11:41:59;;;;;;;9.88;2.13;;;;;;;;;;4981861;28;20015;-79
2024/01/28 11:44:35;;;;;;;9.38;2.15;;;;;;;;;;4927952;29;20035;-79
2024/01/28 11:47:14;;;;;;;6.68;2.63;;;;;;;;;;4991951;28;20024;-79
2024/01/28 11:49:54;;;;;;;4.03;1.52;;;;;;;;;;4943670;29;20039;-79
2024/01/28 11:52:19;;;;;;;3.97;1.42;;;;;;;;;;4978405;28;20051;-80
2024/01/28 11:54:48;;;;;;;9.82;2.22;;;;;;;;;;4959619;29;20034;-80
2024/01/28 11:57:22;;;;;;;8.05;2.33;;;;;;;;;;4966106;29;20159;-80
2024/01/28 11:59:53;;;;;;;7.28;2.40;;;;;;;;;;4938606;29;20418;-79
2024/01/28 12:02:24;;;;;;;6.38;1.80;;;;;;;;;;4937602;29;20035;-79
2024/01/28 12:04:51;;;;;;;;;;;;;;;;;;4922796;29;20061;-78
2024/01/28 12:07:20;;;;;;;4.55;1.55;;;;;;;;;;4937499;29;19961;-79
2024/01/28 12:09:49;;;;;;;8.02;2.20;;;;;;;;;;4948950;29;20051;-80
2024/01/28 12:12:15;;;;;;;;;;;;;;;;;;4955912;28;20028;-80
2024/01/28 12:14:41;;;;;;;6.28;2.05;;;;;;;;;;4937386;29;19917;-80
2024/01/28 12:17:11;;;;;;;5.53;2.08;;;;;;;;;;4955181;29;20399;-79
2024/01/28 12:19:41;;;;;;;9.00;2.90;;;;;;;;;;4955751;28;20039;-79
2024/01/28 12:22:10;;;;;;;12.23;2.88;;;;;;;;;;4910436;29;20142;-80
2024/01/28 12:24:48;;;;;;;8.98;2.42;;;;;;;;;;4928706;28;20035;-81
2024/01/28 12:27:33;;;;;;;7.50;2.20;;;;;;;;;;4930825;29;20050;-79
2024/01/28 13:40:42;;;;;;;7.13;1.55;;;;;;;;;;5164135;23;20047;-82
2024/01/28 13:43:08;;;;;;;6.32;1.88;;;;;;;;;;4976512;28;20042;-83
2024/01/28 13:45:34;;;;;;;5.82;1.88;;;;;;;;;;4972758;28;20042;-83
2024/01/28 13:47:59;;;;;;;5.28;1.60;;;;;;;;;;4951143;28;20041;-84
2024/01/28 13:50:25;;;;;;;8.90;1.48;;;;;;;;;;4954801;28;20030;-83
2024/01/28 13:55:58;;;;;;;3.90;1.60;;;;;;;;;;5726333;23;20118;-84
2024/01/28 13:58:34;;;;;;;4.65;1.70;;;;;;;;;;4983751;28;20076;-84
2024/01/28 14:01:01;;;;;;;5.82;1.75;;;;;;;;;;4971758;28;20027;-84
2024/01/28 14:03:26;;;;;;;5.88;1.88;;;;;;;;;;4984331;28;20062;-85
2024/01/28 14:05:52;;;;;;;3.72;1.40;;;;;;;;;;4950281;28;20038;-84
2024/01/28 14:08:17;;;;;;;5.05;1.83;;;;;;;;;;4966309;28;20022;-84
2024/01/28 14:10:43;;;;;;;6.88;2.78;;;;;;;;;;4944283;29;20164;-84
2024/01/28 14:13:08;;;;;;;5.18;1.90;;;;;;;;;;4950357;28;20035;-84
2024/01/28 14:15:37;;;;;;;4.15;1.65;;;;;;;;;;4928527;29;20035;-85
2024/01/28 14:18:03;;;;;;;;;;;;;;;;;;4928056;29;20042;-84
2024/01/28 14:20:28;;;;;;;4.95;1.85;;;;;;;;;;4928888;29;19911;-84
2024/01/28 14:22:54;;;;;;;5.50;1.80;;;;;;;;;;4928843;29;20031;-86
2024/01/28 14:25:22;;;;;;;5.72;2.30;;;;;;;;;;4928596;29;20161;-84
2024/01/28 14:27:48;;;;;;;4.75;1.73;;;;;;;;;;4928458;29;20036;-84
2024/01/28 14:30:14;;;;;;;6.20;2.08;;;;;;;;;;4927764;29;20036;-84
2024/01/28 14:32:40;;;;;;;6.88;2.10;;;;;;;;;;4937848;28;20042;-86
2024/01/28 14:35:06;;;;;;;4.70;1.98;;;;;;;;;;4962815;28;20031;-83
2024/01/28 14:37:32;;;;;;;5.40;1.83;;;;;;;;;;4949537;28;20077;-85
2024/01/28 14:40:00;;;;;;;5.78;1.90;;;;;;;;;;4964164;28;20046;-85
2024/01/28 14:42:26;;;;;;;7.20;2.40;;;;;;;;;;4982796;28;20037;-85
2024/01/28 14:44:54;;;;;;;6.38;2.42;;;;;;;;;;4971778;28;20031;-85
2024/01/28 14:47:20;;;;;;;6.15;2.10;;;;;;;;;;4976195;28;20031;-84
2024/01/28 14:49:46;;;;;;;4.78;2.08;;;;;;;;;;4976627;28;20031;-84
2024/01/28 14:52:12;;;;;;;7.80;2.13;;;;;;;;;;4956210;29;20391;-84
2024/01/28 17:01:42;;;;;;;5.78;3.28;;;;;;;;;;5554126;23;20421;-82
2024/01/28 17:04:08;;;;;;;8.45;3.58;;;;;;;;;;4983283;28;20065;-82
2024/01/28 17:06:35;;;;;;;10.27;3.40;;;;;;;;;;4980365;28;20501;-83
2024/01/28 17:10:42;;;;;;;7.10;3.28;;;;;;;;;;4995282;28;20102;-84
2024/01/28 17:13:39;;;;;;;9.68;3.28;;;;;;;;;;4985654;28;20035;-84
2024/01/28 17:24:21;;;;;;;19.80;7.20;;;;;;;;;;5137061;23;20338;-83
2024/01/28 17:26:48;;;;;;;13.32;4.97;;;;;;;;;;4965407;28;20063;-83
2024/01/28 17:29:15;;;;;;;20.00;7.10;;;;;;;;;;4965563;28;20039;-83
2024/01/28 17:31:43;;;;;;;18.02;7.38;;;;;;;;;;4967208;28;20030;-83
2024/01/28 17:34:42;;;;;;;18.65;6.80;;;;;;;;;;4983806;28;20032;-83
2024/01/28 18:19:49;;;;;;;21.25;9.45;;;;;;;;;;5654057;23;20576;-83
2024/01/28 18:22:16;;;;;;;24.00;9.40;;;;;;;;;;4968142;28;20406;-83
2024/01/28 18:24:47;;;;;;;19.15;8.20;;;;;;;;;;4987441;28;20034;-84
2024/01/28 18:27:21;;;;;;;21.23;8.65;;;;;;;;;;4970515;28;20035;-83
2024/01/28 18:29:48;;;;;;;18.80;8.38;;;;;;;;;;4953700;28;20098;-83
2024/01/28 18:32:15;;;;;;;24.80;9.45;;;;;;;;;;4972579;28;20467;-84
2024/01/28 18:34:41;;;;;;;22.90;8.45;;;;;;;;;;4984645;28;20023;-83
2024/01/28 18:37:08;;;;;;;21.15;9.18;;;;;;;;;;4952029;29;20079;-83
2024/01/28 18:39:42;;;;;;;18.80;9.25;;;;;;;;;;4957750;28;20031;-82
2024/01/28 18:42:10;;;;;;;25.70;9.88;;;;;;;;;;4955049;29;20031;-83
2024/01/28 18:45:00;;;;;;;19.15;8.80;;;;;;;;;;4962089;29;20047;-83
2024/01/28 18:47:39;;;;;;;14.70;6.93;;;;;;;;;;4988439;28;20031;-82
2024/01/28 18:50:41;;;;;;;21.38;8.95;;;;;;;;;;4995115;28;20027;-83
2024/01/28 18:53:13;;;;;;;20.73;9.20;;;;;;;;;;4992472;28;20026;-83
2024/01/28 18:56:31;;;;;;;22.20;9.80;;;;;;;;;;4969550;28;20015;-84
2024/01/28 19:05:20;;;;;;;25.73;9.30;;;;;;;;;;4950928;29;20507;-82
2024/01/28 19:07:47;;;;;;;24.98;10.68;;;;;;;;;;4938389;28;20046;-82
2024/01/28 19:10:27;;;;;;;23.38;9.77;;;;;;;;;;5000284;28;20053;-83
2024/01/28 19:13:03;;;;;;;25.40;10.93;;;;;;;;;;4997230;28;20046;-83
2024/01/28 19:15:54;;;;;;;29.88;12.35;;;;;;;;;;4998820;28;20027;-84
2024/01/28 20:09:24;;;;;;;25.20;10.20;;;;;;;;;;5618487;23;20038;-84
2024/01/28 20:11:53;;;;;;;23.70;11.38;;;;;;;;;;5016514;28;20039;-83
2024/01/28 20:14:21;;;;;;;24.40;11.48;;;;;;;;;;4960357;29;20130;-83
2024/01/28 20:16:51;;;;;;;22.53;11.33;;;;;;;;;;4990855;28;20042;-84
2024/01/28 20:19:22;;;;;;;26.95;12.02;;;;;;;;;;4956201;29;20106;-83
2024/01/28 20:21:56;;;;;;;24.42;11.15;;;;;;;;;;4948183;29;20039;-84
2024/01/28 20:27:38;;;;;;;28.95;12.98;;;;;;;;;;5021803;23;20030;-83
2024/01/28 20:30:08;;;;;;;24.50;11.07;;;;;;;;;;4965850;28;20059;-84
2024/01/28 20:32:40;;;;;;;26.08;10.77;;;;;;;;;;4965635;28;20043;-83
2024/01/28 20:35:13;;;;;;;22.05;11.15;;;;;;;;;;5001321;28;20034;-84
2024/01/28 21:08:44;;;;;;;21.08;9.43;;;;;;;;;;5020715;23;20055;-84
2024/01/28 21:11:11;;;;;;;19.83;10.07;;;;;;;;;;5009751;28;20035;-84
2024/01/28 21:13:38;;;;;;;21.52;9.52;;;;;;;;;;4991612;28;20035;-84
2024/01/28 21:17:00;;;;;;;15.00;7.38;;;;;;;;;;4963183;29;20039;-82
2024/01/28 21:21:00;;;;;;;18.23;7.93;;;;;;;;;;4980142;28;20047;-84
2024/01/28 23:10:40;;;;;;;10.73;3.47;;;;;;;;;;4952576;29;19993;-84
2024/01/28 23:13:07;;;;;;;9.93;3.58;;;;;;;;;;4936437;29;20036;-83
2024/01/28 23:15:34;;;;;;;8.07;3.15;;;;;;;;;;4960614;29;20027;-83
2024/01/28 23:18:02;;;;;;;6.93;2.88;;;;;;;;;;4947302;29;20047;-83
2024/01/28 23:20:31;;;;;;;9.27;3.13;;;;;;;;;;4963105;29;20031;-84
2024/01/28 23:22:58;;;;;;;11.13;3.78;;;;;;;;;;4979242;28;20043;-84
2024/01/28 23:25:24;;;;;;;8.27;3.50;;;;;;;;;;4948011;28;20098;-83
2024/01/28 23:42:42;;;;;;;7.43;3.22;;;;;;;;;;4956728;23;19932;-78
2024/01/28 23:45:10;;;;;;;9.38;3.08;;;;;;;;;;4975859;28;20034;-78
2024/01/28 23:47:36;;;;;;;7.18;2.80;;;;;;;;;;4993003;28;20038;-79
2024/01/28 23:50:02;;;;;;;8.02;3.20;;;;;;;;;;4977579;28;20038;-78
2024/01/28 23:52:27;;;;;;;8.02;3.33;;;;;;;;;;4993057;28;20437;-77
2024/01/28 23:54:53;;;;;;;9.07;3.25;;;;;;;;;;4991840;28;20026;-79
2024/01/28 23:57:21;;;;;;;7.53;3.03;;;;;;;;;;4977319;28;20531;-80
2024/01/28 23:59:49;;;;;;;7.35;3.20;;;;;;;;;;4979496;28;20489;-80
